Time;durP1;ratioP1;P1;durP2;ratioP2;P2;SDS_P1;SDS_P2;PMS_P1;PMS_P2;Temp;Humidity;BMP_temperature;BMP_pressure;BME280_temperature;BME280_humidity;BME280_pressure;Samples;Min_cycle;Max_cycle;Signal;HPM_P1;HPM_P2
2022/03/17 00:00:53;;;;;;;8.15;3.50;;;;;;;;;;5050376;28;20180;-68
2022/03/17 00:03:19;;;;;;;6.72;3.13;;;;;;;;;;5049448;28;20107;-69
2022/03/17 00:05:45;;;;;;;9.65;3.53;;;;;;;;;;5049437;28;20029;-68
2022/03/17 00:08:12;;;;;;;9.70;3.38;;;;;;;;;;5055328;28;20027;-68
2022/03/17 00:10:38;;;;;;;8.18;3.30;;;;;;;;;;5050394;28;20044;-68
2022/03/17 00:13:04;;;;;;;7.10;3.38;;;;;;;;;;5050056;28;20029;-68
2022/03/17 00:15:30;;;;;;;10.48;4.18;;;;;;;;;;5048880;28;20031;-68
2022/03/17 00:17:57;;;;;;;8.40;3.13;;;;;;;;;;5050002;28;20044;-68
2022/03/17 00:20:23;;;;;;;6.82;2.88;;;;;;;;;;5049305;28;20052;-68
2022/03/17 00:22:49;;;;;;;9.32;3.47;;;;;;;;;;5053142;28;20120;-68
2022/03/17 00:25:17;;;;;;;7.30;3.22;;;;;;;;;;5054838;28;20075;-68
2022/03/17 00:27:43;;;;;;;7.72;3.05;;;;;;;;;;5054289;28;20025;-68
2022/03/17 00:30:09;;;;;;;8.85;3.47;;;;;;;;;;5054066;28;20033;-68
2022/03/17 00:32:36;;;;;;;8.00;3.47;;;;;;;;;;5053868;28;20479;-68
2022/03/17 00:37:48;;;;;;;8.60;3.22;;;;;;;;;;5054136;28;20072;-68
2022/03/17 00:40:14;;;;;;;8.38;3.00;;;;;;;;;;5053452;28;20068;-68
2022/03/17 00:42:40;;;;;;;9.07;3.53;;;;;;;;;;5053780;28;20057;-68
2022/03/17 00:45:09;;;;;;;7.28;3.25;;;;;;;;;;5053601;28;20032;-68
2022/03/17 00:47:35;;;;;;;7.15;3.20;;;;;;;;;;5053460;28;20504;-68
2022/03/17 00:50:01;;;;;;;9.45;3.25;;;;;;;;;;5053626;28;20036;-68
2022/03/17 00:52:27;;;;;;;7.00;3.45;;;;;;;;;;5052317;28;20021;-68
2022/03/17 00:54:53;;;;;;;7.95;3.47;;;;;;;;;;5053519;28;20085;-68
2022/03/17 00:57:19;;;;;;;7.07;3.00;;;;;;;;;;5052956;28;20021;-68
2022/03/17 00:59:46;;;;;;;4.93;3.05;;;;;;;;;;5053641;28;20033;-68
2022/03/17 01:02:12;;;;;;;9.60;3.65;;;;;;;;;;5052365;28;20036;-68
2022/03/17 01:04:38;;;;;;;8.57;2.85;;;;;;;;;;5053137;28;20115;-68
2022/03/17 01:07:04;;;;;;;6.07;3.17;;;;;;;;;;5053705;28;20033;-68
2022/03/17 01:09:31;;;;;;;7.07;2.85;;;;;;;;;;5057633;28;20417;-68
2022/03/17 01:11:57;;;;;;;7.05;3.45;;;;;;;;;;5053078;28;20079;-68
2022/03/17 01:14:23;;;;;;;7.97;3.55;;;;;;;;;;5052479;28;20515;-68
2022/03/17 01:16:50;;;;;;;6.78;3.00;;;;;;;;;;5052953;28;20112;-68
2022/03/17 01:19:19;;;;;;;8.45;3.28;;;;;;;;;;5052492;28;20029;-68
2022/03/17 01:21:45;;;;;;;6.70;3.30;;;;;;;;;;5052563;28;20492;-68
2022/03/17 01:24:11;;;;;;;7.65;3.53;;;;;;;;;;5058263;28;20403;-68
2022/03/17 01:26:37;;;;;;;5.85;2.80;;;;;;;;;;5052911;28;20021;-68
2022/03/17 01:29:04;;;;;;;6.25;3.00;;;;;;;;;;5053081;28;20078;-68
2022/03/17 01:31:30;;;;;;;5.55;2.85;;;;;;;;;;5051546;28;20484;-68
2022/03/17 01:33:56;;;;;;;6.25;3.47;;;;;;;;;;5053293;28;20043;-68
2022/03/17 01:36:22;;;;;;;8.05;3.22;;;;;;;;;;5051698;28;20037;-68
2022/03/17 01:38:49;;;;;;;7.43;3.28;;;;;;;;;;5052842;28;20036;-68
2022/03/17 01:41:15;;;;;;;7.78;3.40;;;;;;;;;;5051409;28;20036;-68
2022/03/17 01:43:41;;;;;;;9.35;3.40;;;;;;;;;;5052394;28;20112;-68
2022/03/17 01:46:09;;;;;;;7.38;3.33;;;;;;;;;;5052392;28;20025;-68
2022/03/17 01:48:35;;;;;;;6.25;2.90;;;;;;;;;;5051828;28;20083;-68
2022/03/17 01:51:01;;;;;;;8.13;3.40;;;;;;;;;;5052827;28;20087;-68
2022/03/17 01:53:27;;;;;;;7.25;3.03;;;;;;;;;;5051874;28;20029;-68
2022/03/17 01:55:53;;;;;;;7.28;3.10;;;;;;;;;;5052342;28;20576;-68
2022/03/17 01:58:19;;;;;;;7.35;3.13;;;;;;;;;;5051599;28;20539;-68
2022/03/17 02:00:48;;;;;;;5.00;3.10;;;;;;;;;;5052943;28;20059;-68
2022/03/17 02:03:14;;;;;;;7.72;3.00;;;;;;;;;;5051243;28;20068;-68
2022/03/17 02:05:40;;;;;;;7.93;3.20;;;;;;;;;;5051985;28;20108;-68
2022/03/17 02:08:09;;;;;;;7.72;3.17;;;;;;;;;;5057414;28;20078;-68
2022/03/17 02:13:08;;;;;;;6.53;2.80;;;;;;;;;;5051504;28;20024;-68
2022/03/17 02:13:22;;;;;;;6.50;3.00;;;;;;;;;;5050887;28;20025;-68
2022/03/17 02:15:52;;;;;;;8.70;2.75;;;;;;;;;;5051899;28;20040;-68
2022/03/17 02:18:18;;;;;;;4.80;2.67;;;;;;;;;;5051629;28;20036;-68
2022/03/17 02:20:45;;;;;;;6.90;3.03;;;;;;;;;;5052055;28;20021;-68
2022/03/17 02:25:59;;;;;;;8.02;3.35;;;;;;;;;;5051837;28;20560;-68
2022/03/17 02:28:26;;;;;;;6.55;3.17;;;;;;;;;;5051139;28;20031;-68
2022/03/17 02:30:53;;;;;;;5.03;3.03;;;;;;;;;;5051886;28;20013;-68
2022/03/17 02:33:19;;;;;;;7.60;3.72;;;;;;;;;;5051248;28;20028;-68
2022/03/17 02:35:45;;;;;;;8.52;2.72;;;;;;;;;;5051766;28;20049;-68
2022/03/17 02:38:13;;;;;;;7.75;2.85;;;;;;;;;;5051166;28;20025;-69
2022/03/17 02:40:40;;;;;;;7.80;3.10;;;;;;;;;;5051776;28;20033;-68
2022/03/17 02:43:07;;;;;;;5.78;2.67;;;;;;;;;;5051470;28;20025;-68
2022/03/17 02:45:34;;;;;;;8.07;3.00;;;;;;;;;;5050470;28;20063;-68
2022/03/17 02:48:00;;;;;;;9.10;3.45;;;;;;;;;;5050800;28;20056;-68
2022/03/17 02:50:26;;;;;;;9.10;3.47;;;;;;;;;;5050993;28;20447;-68
2022/03/17 02:52:52;;;;;;;8.07;2.92;;;;;;;;;;5052048;28;20049;-68
2022/03/17 02:55:18;;;;;;;7.07;2.95;;;;;;;;;;5050705;28;20071;-68
2022/03/17 02:57:45;;;;;;;6.82;3.10;;;;;;;;;;5051207;28;20049;-68
2022/03/17 03:00:12;;;;;;;9.63;3.15;;;;;;;;;;5050705;28;20017;-68
2022/03/17 03:02:38;;;;;;;7.93;3.10;;;;;;;;;;5033399;28;20116;-69
2022/03/17 03:05:05;;;;;;;8.82;3.33;;;;;;;;;;5051213;28;20112;-68
2022/03/17 03:07:31;;;;;;;6.15;2.75;;;;;;;;;;5050570;28;20029;-68
2022/03/17 03:09:57;;;;;;;6.72;2.83;;;;;;;;;;5053145;28;20539;-68
2022/03/17 03:12:23;;;;;;;8.13;3.05;;;;;;;;;;5049796;28;20036;-68
2022/03/17 03:14:50;;;;;;;9.50;3.40;;;;;;;;;;5051216;28;20104;-68
2022/03/17 03:17:16;;;;;;;5.57;2.70;;;;;;;;;;5049863;28;20072;-68
2022/03/17 03:19:42;;;;;;;6.78;2.92;;;;;;;;;;5050480;28;20107;-68
2022/03/17 03:22:08;;;;;;;7.28;3.40;;;;;;;;;;5050620;28;20441;-68
2022/03/17 03:24:36;;;;;;;7.75;3.00;;;;;;;;;;5055680;28;20020;-68
2022/03/17 03:27:03;;;;;;;6.57;3.15;;;;;;;;;;5050527;28;20039;-68
2022/03/17 03:29:30;;;;;;;9.15;3.13;;;;;;;;;;5050046;28;20025;-68
2022/03/17 03:31:57;;;;;;;9.95;3.10;;;;;;;;;;5050136;28;20407;-68
2022/03/17 03:34:25;;;;;;;5.80;2.72;;;;;;;;;;5050040;28;20025;-68
2022/03/17 03:39:36;;;;;;;6.00;2.92;;;;;;;;;;5050714;28;20024;-68
2022/03/17 03:42:02;;;;;;;7.35;3.13;;;;;;;;;;5050146;28;20541;-68
2022/03/17 03:44:28;;;;;;;6.38;2.95;;;;;;;;;;5049575;28;20051;-68
2022/03/17 03:46:55;;;;;;;7.85;2.80;;;;;;;;;;5050488;28;20051;-68
2022/03/17 03:49:21;;;;;;;6.75;3.05;;;;;;;;;;5049695;28;20079;-68
2022/03/17 03:51:47;;;;;;;6.50;3.03;;;;;;;;;;5049393;28;20131;-68
2022/03/17 03:54:13;;;;;;;8.60;3.10;;;;;;;;;;5049612;28;20021;-68
2022/03/17 03:56:40;;;;;;;6.78;3.17;;;;;;;;;;5050434;28;20048;-68
2022/03/17 03:59:13;;;;;;;8.98;3.28;;;;;;;;;;5049458;28;20337;-68
2022/03/17 04:01:39;;;;;;;7.75;3.25;;;;;;;;;;5042459;28;20411;-68
2022/03/17 04:04:05;;;;;;;8.35;2.97;;;;;;;;;;5050078;28;20458;-68
2022/03/17 04:06:35;;;;;;;6.32;3.20;;;;;;;;;;5049609;28;20416;-68
2022/03/17 04:09:01;;;;;;;7.30;3.03;;;;;;;;;;5055814;28;20048;-68
2022/03/17 04:11:27;;;;;;;8.90;3.20;;;;;;;;;;5049211;28;20031;-68
2022/03/17 04:13:53;;;;;;;5.45;3.08;;;;;;;;;;5050381;28;20233;-68
2022/03/17 04:16:19;;;;;;;7.80;3.40;;;;;;;;;;5048998;28;20045;-68
2022/03/17 04:18:45;;;;;;;6.18;3.47;;;;;;;;;;5050018;28;20017;-68
2022/03/17 04:21:11;;;;;;;7.13;3.28;;;;;;;;;;5049166;28;20021;-68
2022/03/17 04:23:37;;;;;;;4.85;2.83;;;;;;;;;;5054956;28;20021;-68
2022/03/17 04:26:03;;;;;;;4.68;2.55;;;;;;;;;;5049956;28;20037;-68
2022/03/17 04:28:29;;;;;;;5.70;3.20;;;;;;;;;;5048651;28;20035;-68
2022/03/17 04:30:55;;;;;;;6.47;2.88;;;;;;;;;;5050229;28;20105;-68
2022/03/17 04:33:21;;;;;;;7.70;2.90;;;;;;;;;;5049186;28;20017;-68
2022/03/17 04:35:48;;;;;;;6.60;2.80;;;;;;;;;;5049981;28;20100;-68
2022/03/17 04:38:14;;;;;;;6.70;2.50;;;;;;;;;;5049252;28;20043;-68
2022/03/17 04:40:43;;;;;;;4.20;2.65;;;;;;;;;;5049829;28;20028;-68
2022/03/17 04:43:09;;;;;;;7.32;2.67;;;;;;;;;;5049143;28;20078;-68
2022/03/17 04:45:35;;;;;;;5.07;2.50;;;;;;;;;;5049423;28;20111;-68
2022/03/17 04:48:01;;;;;;;7.50;2.88;;;;;;;;;;5049582;28;20017;-68
2022/03/17 04:50:27;;;;;;;6.50;2.60;;;;;;;;;;5048898;28;20028;-68
2022/03/17 04:55:38;;;;;;;4.75;2.20;;;;;;;;;;5049370;28;20063;-68
2022/03/17 04:58:06;;;;;;;7.05;2.90;;;;;;;;;;5049677;28;20112;-68
2022/03/17 05:00:32;;;;;;;5.80;2.60;;;;;;;;;;5049069;28;20037;-68
2022/03/17 05:02:58;;;;;;;6.38;2.30;;;;;;;;;;5049307;28;20024;-68
2022/03/17 05:05:24;;;;;;;6.28;2.58;;;;;;;;;;5048808;28;20082;-68
2022/03/17 05:07:56;;;;;;;5.97;2.60;;;;;;;;;;5052522;28;20089;-68
2022/03/17 05:10:22;;;;;;;5.65;2.60;;;;;;;;;;5051512;28;20040;-68
2022/03/17 05:12:48;;;;;;;4.70;2.20;;;;;;;;;;5053401;28;20020;-68
2022/03/17 05:15:14;;;;;;;4.65;2.75;;;;;;;;;;5051560;28;20033;-68
2022/03/17 05:17:40;;;;;;;4.10;2.38;;;;;;;;;;5056945;28;20044;-68
2022/03/17 05:20:10;;;;;;;4.95;2.50;;;;;;;;;;5052863;28;20025;-68
2022/03/17 05:22:36;;;;;;;7.13;2.88;;;;;;;;;;5046035;28;20433;-68
2022/03/17 05:25:04;;;;;;;5.07;2.60;;;;;;;;;;5063330;28;20107;-68
2022/03/17 05:27:30;;;;;;;4.68;2.40;;;;;;;;;;5052107;28;20055;-68
2022/03/17 05:29:57;;;;;;;6.22;2.75;;;;;;;;;;5053237;28;20465;-68
2022/03/17 05:32:23;;;;;;;5.20;2.08;;;;;;;;;;5053138;28;20024;-68
2022/03/17 05:34:49;;;;;;;5.53;2.63;;;;;;;;;;5053484;28;20425;-68
2022/03/17 05:37:15;;;;;;;5.78;1.92;;;;;;;;;;5052156;28;20523;-68
2022/03/17 05:39:41;;;;;;;3.63;2.15;;;;;;;;;;5052671;28;20472;-68
2022/03/17 05:42:07;;;;;;;4.75;2.33;;;;;;;;;;5052619;28;20131;-68
2022/03/17 05:44:33;;;;;;;5.07;2.17;;;;;;;;;;5052156;28;20027;-68
2022/03/17 05:47:00;;;;;;;4.15;2.13;;;;;;;;;;5052582;28;20025;-68
2022/03/17 05:49:26;;;;;;;4.72;2.33;;;;;;;;;;5052929;28;20024;-68
2022/03/17 05:51:52;;;;;;;4.78;2.55;;;;;;;;;;5052461;28;20013;-68
2022/03/17 05:54:18;;;;;;;5.25;2.28;;;;;;;;;;5051951;28;20029;-68
2022/03/17 05:56:44;;;;;;;5.22;2.55;;;;;;;;;;5052504;28;20028;-68
2022/03/17 05:59:10;;;;;;;6.80;2.50;;;;;;;;;;5051833;28;20028;-68
2022/03/17 06:01:36;;;;;;;6.10;2.40;;;;;;;;;;5051774;28;20084;-68
2022/03/17 06:04:02;;;;;;;5.47;2.55;;;;;;;;;;5052736;28;20550;-68
2022/03/17 06:06:28;;;;;;;4.95;2.22;;;;;;;;;;5051323;28;20139;-68
2022/03/17 06:08:54;;;;;;;5.05;2.40;;;;;;;;;;5058472;28;20045;-68
2022/03/17 06:11:21;;;;;;;4.72;2.30;;;;;;;;;;5050963;28;20455;-68
2022/03/17 06:13:47;;;;;;;7.55;2.00;;;;;;;;;;5052407;28;20088;-68
2022/03/17 06:16:13;;;;;;;4.78;2.38;;;;;;;;;;5051422;28;20067;-68
2022/03/17 06:18:42;;;;;;;5.88;2.45;;;;;;;;;;5052098;28;20035;-68
2022/03/17 06:21:08;;;;;;;4.47;2.53;;;;;;;;;;5051733;28;20047;-68
2022/03/17 06:23:34;;;;;;;5.75;2.60;;;;;;;;;;5056210;28;20044;-68
2022/03/17 06:26:00;;;;;;;4.40;2.28;;;;;;;;;;5052251;28;20438;-68
2022/03/17 06:28:26;;;;;;;5.72;2.45;;;;;;;;;;5051284;28;20427;-68
2022/03/17 06:30:54;;;;;;;4.00;2.30;;;;;;;;;;5051548;28;20483;-68
2022/03/17 06:33:20;;;;;;;4.63;2.70;;;;;;;;;;5051019;28;20021;-68
2022/03/17 06:35:46;;;;;;;4.75;2.40;;;;;;;;;;5051810;28;20033;-68
2022/03/17 06:38:12;;;;;;;5.20;2.33;;;;;;;;;;5051411;28;20032;-69
2022/03/17 06:40:38;;;;;;;4.45;2.70;;;;;;;;;;5051712;28;20479;-68
2022/03/17 06:43:05;;;;;;;6.63;2.75;;;;;;;;;;5051627;28;20408;-68
2022/03/17 06:45:31;;;;;;;5.88;2.83;;;;;;;;;;5051242;28;20033;-68
2022/03/17 06:47:57;;;;;;;5.35;2.65;;;;;;;;;;5051288;28;20606;-68
2022/03/17 06:50:24;;;;;;;6.03;2.88;;;;;;;;;;5050650;28;20547;-68
2022/03/17 06:52:51;;;;;;;5.28;2.30;;;;;;;;;;5051553;28;20021;-68
2022/03/17 06:55:18;;;;;;;5.53;2.75;;;;;;;;;;5050902;28;20476;-68
2022/03/17 06:57:44;;;;;;;5.85;2.40;;;;;;;;;;5051684;28;20040;-68
2022/03/17 07:00:12;;;;;;;6.88;2.80;;;;;;;;;;5051376;28;20029;-68
2022/03/17 07:02:38;;;;;;;6.75;2.70;;;;;;;;;;5043083;28;20028;-68
2022/03/17 07:05:05;;;;;;;5.63;2.50;;;;;;;;;;5050804;28;20112;-68
2022/03/17 07:07:31;;;;;;;5.25;2.45;;;;;;;;;;5050810;28;20025;-68
2022/03/17 07:09:57;;;;;;;6.05;2.58;;;;;;;;;;5056535;28;20530;-69
2022/03/17 07:12:23;;;;;;;3.63;2.20;;;;;;;;;;5049614;28;20029;-68
2022/03/17 07:14:50;;;;;;;5.30;2.50;;;;;;;;;;5051189;28;20021;-68
2022/03/17 07:17:22;;;;;;;5.28;2.75;;;;;;;;;;5049999;28;20037;-68
2022/03/17 07:22:27;;;;;;;6.65;2.83;;;;;;;;;;5049934;28;20067;-68
2022/03/17 07:24:53;;;;;;;6.63;2.67;;;;;;;;;;5053749;28;20029;-68
2022/03/17 07:27:21;;;;;;;6.05;2.92;;;;;;;;;;5050260;28;20040;-68
2022/03/17 07:29:47;;;;;;;5.97;3.10;;;;;;;;;;5051202;28;20369;-68
2022/03/17 07:32:14;;;;;;;5.22;2.80;;;;;;;;;;5049523;28;20025;-68
2022/03/17 07:34:40;;;;;;;7.30;3.13;;;;;;;;;;5050703;28;20047;-68
2022/03/17 07:37:06;;;;;;;4.82;2.85;;;;;;;;;;5048834;28;20387;-68
2022/03/17 07:39:32;;;;;;;7.47;2.90;;;;;;;;;;5052965;28;20061;-69
2022/03/17 07:41:58;;;;;;;5.63;2.65;;;;;;;;;;5053822;28;20049;-68
2022/03/17 07:44:24;;;;;;;6.40;3.03;;;;;;;;;;5051023;28;20033;-68
2022/03/17 07:46:50;;;;;;;9.15;2.88;;;;;;;;;;5050814;28;20478;-68
2022/03/17 07:49:16;;;;;;;9.88;3.28;;;;;;;;;;5057276;28;20090;-67
2022/03/17 07:51:42;;;;;;;8.80;3.83;;;;;;;;;;5044625;28;20407;-67
2022/03/17 07:54:08;;;;;;;7.15;3.05;;;;;;;;;;5028935;28;20064;-67
2022/03/17 07:56:35;;;;;;;10.43;3.25;;;;;;;;;;5052700;28;20551;-67
2022/03/17 07:59:01;;;;;;;11.55;3.88;;;;;;;;;;5049456;28;20031;-67
2022/03/17 08:01:27;;;;;;;10.90;4.63;;;;;;;;;;5047450;28;20117;-67
2022/03/17 08:03:54;;;;;;;9.55;3.70;;;;;;;;;;5049078;28;20110;-67
2022/03/17 08:06:20;;;;;;;17.92;5.05;;;;;;;;;;5045117;28;20068;-68
2022/03/17 08:08:46;;;;;;;19.83;5.35;;;;;;;;;;5046652;28;20034;-68
2022/03/17 08:11:12;;;;;;;14.45;4.15;;;;;;;;;;5042898;28;20021;-68
2022/03/17 08:13:41;;;;;;;26.88;6.63;;;;;;;;;;5048483;28;20021;-68
2022/03/17 08:16:10;;;;;;;23.02;6.47;;;;;;;;;;5056514;28;20040;-68
2022/03/17 08:18:36;;;;;;;14.82;4.90;;;;;;;;;;5034407;28;20538;-69
2022/03/17 08:21:03;;;;;;;15.70;4.43;;;;;;;;;;5046578;28;20530;-69
2022/03/17 08:23:29;;;;;;;15.75;4.90;;;;;;;;;;5042820;28;20059;-69
2022/03/17 08:25:58;;;;;;;13.85;4.75;;;;;;;;;;5041829;28;20021;-69
2022/03/17 08:28:26;;;;;;;15.35;5.07;;;;;;;;;;5040880;28;20056;-68
2022/03/17 08:30:52;;;;;;;17.35;4.80;;;;;;;;;;5050196;28;20031;-69
2022/03/17 08:33:18;;;;;;;11.90;4.80;;;;;;;;;;5037976;28;20028;-69
2022/03/17 08:35:45;;;;;;;14.63;4.95;;;;;;;;;;5035752;28;20028;-69
2022/03/17 08:38:12;;;;;;;15.50;5.00;;;;;;;;;;5049610;28;20087;-68
2022/03/17 08:40:38;;;;;;;11.63;4.45;;;;;;;;;;5043433;28;20104;-68
2022/03/17 08:43:11;;;;;;;11.30;5.10;;;;;;;;;;5045873;28;20079;-68
2022/03/17 08:51:08;;;;;;;13.75;4.65;;;;;;;;;;5057546;28;20526;-68
2022/03/17 08:53:35;;;;;;;13.80;4.70;;;;;;;;;;5046240;28;20028;-68
2022/03/17 08:56:01;;;;;;;13.00;4.95;;;;;;;;;;5053729;28;20037;-68
2022/03/17 08:58:27;;;;;;;13.13;4.18;;;;;;;;;;5048204;28;20025;-68
2022/03/17 09:00:54;;;;;;;15.25;4.70;;;;;;;;;;5051269;28;20032;-67
2022/03/17 09:03:20;;;;;;;11.65;4.35;;;;;;;;;;5048195;28;20032;-67
2022/03/17 09:05:46;;;;;;;10.77;4.25;;;;;;;;;;5050370;28;20048;-67
2022/03/17 09:08:12;;;;;;;9.80;4.60;;;;;;;;;;5055297;28;20070;-67
2022/03/17 09:10:41;;;;;;;14.80;4.97;;;;;;;;;;5056636;28;20032;-68
2022/03/17 09:13:09;;;;;;;11.30;5.15;;;;;;;;;;5044564;28;20095;-68
2022/03/17 09:15:36;;;;;;;11.65;4.63;;;;;;;;;;5048536;28;20040;-68
2022/03/17 09:18:02;;;;;;;12.93;4.38;;;;;;;;;;5053160;28;20690;-67
2022/03/17 09:20:29;;;;;;;11.95;4.30;;;;;;;;;;5054642;28;20028;-68
2022/03/17 09:22:56;;;;;;;9.15;4.07;;;;;;;;;;5056510;28;20021;-68
2022/03/17 09:25:28;;;;;;;10.13;4.20;;;;;;;;;;5044711;28;20060;-68
2022/03/17 09:27:55;;;;;;;8.30;4.20;;;;;;;;;;5053830;28;20067;-68
2022/03/17 09:30:21;;;;;;;14.40;4.20;;;;;;;;;;5048977;28;20458;-68
2022/03/17 09:32:47;;;;;;;11.85;4.63;;;;;;;;;;5052947;28;20017;-67
2022/03/17 09:35:16;;;;;;;10.07;4.13;;;;;;;;;;5050055;28;20064;-67
2022/03/17 09:37:42;;;;;;;10.10;4.68;;;;;;;;;;5052387;28;20075;-68
2022/03/17 09:40:09;;;;;;;11.57;4.55;;;;;;;;;;5050052;28;20051;-67
2022/03/17 09:42:38;;;;;;;11.90;4.25;;;;;;;;;;5053310;28;20079;-68
2022/03/17 09:45:05;;;;;;;12.57;4.53;;;;;;;;;;5047497;28;20036;-68
2022/03/17 09:47:35;;;;;;;11.65;4.50;;;;;;;;;;5045254;28;20087;-66
2022/03/17 09:50:02;;;;;;;13.88;4.30;;;;;;;;;;5050352;28;20408;-68
2022/03/17 09:52:29;;;;;;;11.13;4.30;;;;;;;;;;5048415;28;20060;-67
2022/03/17 09:54:55;;;;;;;8.45;4.78;;;;;;;;;;5049028;28;20017;-67
2022/03/17 09:57:22;;;;;;;9.13;4.55;;;;;;;;;;5041710;28;20167;-68
2022/03/17 09:59:48;;;;;;;12.80;4.40;;;;;;;;;;5051012;28;20167;-68
2022/03/17 10:02:16;;;;;;;11.20;4.70;;;;;;;;;;5047165;28;20116;-68
2022/03/17 10:04:44;;;;;;;13.27;4.43;;;;;;;;;;5042533;28;20029;-67
2022/03/17 10:07:11;;;;;;;9.85;4.90;;;;;;;;;;5049510;28;20032;-67
2022/03/17 10:09:37;;;;;;;10.20;4.43;;;;;;;;;;5052744;28;20072;-68
2022/03/17 10:12:05;;;;;;;14.10;5.18;;;;;;;;;;5049100;28;20408;-68
2022/03/17 10:14:44;;;;;;;10.82;4.20;;;;;;;;;;5054560;28;20021;-68
2022/03/17 10:17:31;;;;;;;12.02;4.50;;;;;;;;;;5045036;28;20045;-68
2022/03/17 10:20:15;;;;;;;10.05;4.60;;;;;;;;;;5047533;28;20040;-68
2022/03/17 10:22:43;;;;;;;16.02;5.10;;;;;;;;;;5055435;28;20049;-68
2022/03/17 10:25:09;;;;;;;10.38;4.05;;;;;;;;;;5046338;28;20751;-68
2022/03/17 10:27:46;;;;;;;14.85;4.60;;;;;;;;;;5022957;28;20053;-68
2022/03/17 10:30:16;;;;;;;15.20;4.75;;;;;;;;;;5048016;28;20031;-68
2022/03/17 10:32:54;;;;;;;11.48;4.55;;;;;;;;;;5040521;28;20040;-69
2022/03/17 10:35:25;;;;;;;12.93;5.05;;;;;;;;;;5029161;28;20116;-67
2022/03/17 10:37:51;;;;;;;11.52;4.68;;;;;;;;;;5048294;28;20529;-68
2022/03/17 10:40:17;;;;;;;11.88;4.40;;;;;;;;;;5054503;28;20039;-67
2022/03/17 10:42:43;;;;;;;12.23;4.60;;;;;;;;;;5053570;28;20059;-67
2022/03/17 10:45:13;;;;;;;10.20;4.97;;;;;;;;;;5048812;28;20070;-67
2022/03/17 10:47:42;;;;;;;10.68;3.92;;;;;;;;;;5049832;28;20021;-68
2022/03/17 10:50:11;;;;;;;9.10;4.05;;;;;;;;;;5043830;28;20025;-67
2022/03/17 10:52:46;;;;;;;8.40;3.72;;;;;;;;;;5044528;28;20103;-67
2022/03/17 10:55:13;;;;;;;15.05;4.63;;;;;;;;;;5053909;28;20078;-68
2022/03/17 10:57:39;;;;;;;15.70;5.15;;;;;;;;;;5047210;28;20020;-67
2022/03/17 11:00:10;;;;;;;11.55;4.85;;;;;;;;;;5048154;28;20487;-68
2022/03/17 11:02:41;;;;;;;12.23;5.30;;;;;;;;;;5039649;28;20025;-68
2022/03/17 11:05:10;;;;;;;9.90;5.35;;;;;;;;;;5038616;28;20565;-68
2022/03/17 11:07:38;;;;;;;10.75;4.57;;;;;;;;;;5053071;28;20081;-69
2022/03/17 11:10:05;;;;;;;17.00;4.93;;;;;;;;;;5050817;28;20871;-69
2022/03/17 11:12:33;;;;;;;12.35;4.93;;;;;;;;;;5049481;28;20032;-69
2022/03/17 11:15:01;;;;;;;14.32;6.10;;;;;;;;;;5047930;28;20094;-68
2022/03/17 11:17:31;;;;;;;22.25;7.35;;;18.90;68.10;;;;;;5045842;28;20141;-68
2022/03/17 11:20:08;;;;;;;19.45;6.15;;;19.40;67.60;;;;;;5048515;28;20108;-70
2022/03/17 11:22:35;;;;;;;22.83;9.07;;;;;;;;;;5045920;28;20123;-68
2022/03/17 11:25:37;;;;;;;21.17;8.07;;;18.20;69.60;;;;;;5048279;28;20059;-69
2022/03/17 11:28:04;;;;;;;21.15;7.75;;;21.50;67.00;;;;;;4968596;28;20035;-69
2022/03/17 11:30:45;;;;;;;20.13;7.82;;;19.80;69.50;;;;;;5032197;28;20044;-71
2022/03/17 11:33:26;;;;;;;26.40;9.30;;;25.10;72.30;;;;;;5045557;28;20478;-71
2022/03/17 11:35:59;;;;;;;25.55;10.23;;;20.10;66.60;;;;;;5047206;28;20127;-69
2022/03/17 11:38:30;;;;;;;22.70;8.43;;;21.90;70.40;;;;;;5041311;28;20112;-69
2022/03/17 11:41:22;;;;;;;31.02;9.32;;;21.00;69.00;;;;;;5044275;28;20036;-69
2022/03/17 11:43:48;;;;;;;23.15;7.68;;;;;;;;;;5044622;28;20041;-69
2022/03/17 11:46:15;;;;;;;23.42;8.65;;;;;;;;;;5051229;28;20036;-69
2022/03/17 11:48:45;;;;;;;16.42;7.00;;;;;;;;;;5042548;28;20524;-69
2022/03/17 11:51:12;;;;;;;21.42;8.10;;;;;;;;;;5038687;28;20014;-68
2022/03/17 11:54:02;;;;;;;17.95;7.75;;;;;;;;;;5044993;28;20532;-68
2022/03/17 11:56:34;;;;;;;20.98;8.00;;;;;;;;;;5042439;28;20033;-68
2022/03/17 11:59:00;;;;;;;21.08;8.05;;;;;;;;;;5048422;28;20423;-67
2022/03/17 12:01:29;;;;;;;21.23;8.43;;;;;;;;;;5045798;28;20566;-69
2022/03/17 12:03:56;;;;;;;25.42;8.77;;;;;;;;;;5055389;28;20499;-69
2022/03/17 12:06:23;;;;;;;17.08;8.77;;;;;;;;;;5046075;28;20060;-68
2022/03/17 12:09:01;;;;;;;23.95;8.88;;;;;;;;;;5040641;28;20021;-69
2022/03/17 12:11:38;;;;;;;17.17;7.72;;;;;;;;;;5044247;28;20025;-69
2022/03/17 12:14:14;;;;;;;23.23;8.77;;;;;;;;;;5046842;28;20032;-70
2022/03/17 12:16:47;;;;;;;19.67;7.43;;;;;;;;;;5040698;28;20052;-70
